SDM6972 UZTT-ULLI
Flight info
| Callsign | SDM6972 |
|---|---|
| Flight time | N/A |
| Altitude | 34000 |
| Route | N0460F340 MIKNO L163 SIVKO M166 ARISA L736 OLOPI N50 NUDKO T561 ODATI T875 GENPA |
| Aircraft | B738/M-V/N |
Departure
| Time | 2026-05-06 15:03 |
|---|---|
| Airport | Tashkent International Airport (UZTT) |
Arrival
| Time | N/A |
|---|---|
| Airport | Pulkovo Airport (ULLI) |
| Time | Latitude | Longitude | Altitude | Speed | Heading |
|---|---|---|---|---|---|
| 2026-05-06 14:41 | 41.26109 | 69.26697 | 1387 ft | 0 kts | 352° |
| 2026-05-06 14:55 | 41.26095 | 69.26707 | 1382 ft | 2 kts | 302° |
| 2026-05-06 14:55 | 41.26086 | 69.26725 | 1383 ft | 2 kts | 317° |
| 2026-05-06 14:56 | 41.26074 | 69.26740 | 1383 ft | 2 kts | 321° |
| 2026-05-06 14:56 | 41.26061 | 69.26754 | 1382 ft | 2 kts | 320° |
| 2026-05-06 14:56 | 41.26048 | 69.26768 | 1384 ft | 2 kts | 318° |
| 2026-05-06 14:56 | 41.26036 | 69.26783 | 1384 ft | 2 kts | 314° |
| 2026-05-06 14:57 | 41.26026 | 69.26800 | 1387 ft | 2 kts | 294° |
| 2026-05-06 14:57 | 41.26028 | 69.26820 | 1385 ft | 2 kts | 250° |
| 2026-05-06 14:57 | 41.26033 | 69.26836 | 1387 ft | 1 kts | 244° |
| 2026-05-06 14:57 | 41.26033 | 69.26837 | 1387 ft | 0 kts | 243° |
| 2026-05-06 14:59 | 41.26033 | 69.26836 | 1387 ft | 1 kts | 243° |
| 2026-05-06 14:59 | 41.26013 | 69.26779 | 1384 ft | 13 kts | 246° |
| 2026-05-06 14:59 | 41.25967 | 69.26641 | 1382 ft | 18 kts | 246° |
| 2026-05-06 15:00 | 41.25915 | 69.26496 | 1384 ft | 17 kts | 235° |
| 2026-05-06 15:00 | 41.25827 | 69.26394 | 1387 ft | 16 kts | 218° |
| 2026-05-06 15:00 | 41.25748 | 69.26289 | 1400 ft | 16 kts | 239° |
| 2026-05-06 15:00 | 41.25702 | 69.26160 | 1400 ft | 15 kts | 245° |
| 2026-05-06 15:01 | 41.25658 | 69.26037 | 1403 ft | 15 kts | 244° |
| 2026-05-06 15:01 | 41.25624 | 69.25913 | 1399 ft | 14 kts | 258° |
| 2026-05-06 15:01 | 41.25629 | 69.25791 | 1397 ft | 13 kts | 295° |
| 2026-05-06 15:01 | 41.25602 | 69.25737 | 1389 ft | 5 kts | 155° |
| 2026-05-06 15:02 | 41.25590 | 69.25781 | 1386 ft | 5 kts | 89° |
| 2026-05-06 15:02 | 41.25594 | 69.25830 | 1398 ft | 5 kts | 83° |
| 2026-05-06 15:02 | 41.25619 | 69.26059 | 1398 ft | 56 kts | 81° |
| 2026-05-06 15:02 | 41.25710 | 69.26887 | 1402 ft | 122 kts | 81° |
| 2026-05-06 15:03 | 41.25862 | 69.28259 | 1420 ft | 176 kts | 82° |
| 2026-05-06 15:03 | 41.26038 | 69.29933 | 2000 ft | 182 kts | 81° |
| 2026-05-06 15:03 | 41.26208 | 69.31650 | 2664 ft | 193 kts | 81° |
| 2026-05-06 15:03 | 41.26423 | 69.33390 | 3375 ft | 199 kts | 81° |
| 2026-05-06 15:04 | 41.26615 | 69.35319 | 3585 ft | 221 kts | 83° |
| 2026-05-06 15:04 | 41.26802 | 69.37432 | 3867 ft | 236 kts | 83° |
| 2026-05-06 15:04 | 41.27000 | 69.39617 | 4374 ft | 240 kts | 83° |
| 2026-05-06 15:04 | 41.27203 | 69.41819 | 4977 ft | 240 kts | 83° |
| 2026-05-06 15:05 | 41.27366 | 69.44036 | 5554 ft | 242 kts | 93° |
| 2026-05-06 15:05 | 41.26876 | 69.46151 | 6096 ft | 243 kts | 125° |
| 2026-05-06 15:05 | 41.25620 | 69.47631 | 6678 ft | 244 kts | 156° |
| 2026-05-06 15:05 | 41.23969 | 69.48034 | 7315 ft | 245 kts | 187° |
| 2026-05-06 15:06 | 41.22377 | 69.47250 | 7892 ft | 249 kts | 218° |
| 2026-05-06 15:06 | 41.21291 | 69.45478 | 8510 ft | 251 kts | 248° |
| 2026-05-06 15:06 | 41.21041 | 69.43227 | 9109 ft | 254 kts | 277° |
| 2026-05-06 15:06 | 41.21472 | 69.40939 | 9759 ft | 257 kts | 288° |
| 2026-05-06 15:07 | 41.22072 | 69.38690 | 10337 ft | 260 kts | 294° |
| 2026-05-06 15:07 | 41.23093 | 69.36620 | 10575 ft | 280 kts | 310° |
| 2026-05-06 15:07 | 41.24460 | 69.34641 | 10750 ft | 301 kts | 314° |
| 2026-05-06 15:07 | 41.25982 | 69.32581 | 10902 ft | 323 kts | 314° |
| 2026-05-06 15:08 | 41.27605 | 69.30390 | 11053 ft | 343 kts | 314° |
| 2026-05-06 15:08 | 41.29304 | 69.28064 | 11337 ft | 356 kts | 313° |
| 2026-05-06 15:08 | 41.31029 | 69.25665 | 11864 ft | 361 kts | 313° |
| 2026-05-06 15:08 | 41.32756 | 69.23232 | 12512 ft | 362 kts | 313° |
| 2026-05-06 15:09 | 41.34484 | 69.20775 | 13144 ft | 364 kts | 312° |
| 2026-05-06 15:09 | 41.36214 | 69.18297 | 13733 ft | 367 kts | 312° |
| 2026-05-06 15:09 | 41.37957 | 69.15791 | 14263 ft | 370 kts | 312° |
| 2026-05-06 15:09 | 41.39708 | 69.13268 | 14813 ft | 372 kts | 312° |
| 2026-05-06 15:10 | 41.41467 | 69.10727 | 15362 ft | 374 kts | 312° |
| 2026-05-06 15:10 | 41.43235 | 69.08172 | 15905 ft | 376 kts | 312° |
| 2026-05-06 15:10 | 41.45010 | 69.05602 | 16440 ft | 378 kts | 312° |
| 2026-05-06 15:10 | 41.46801 | 69.03009 | 16986 ft | 381 kts | 312° |
| 2026-05-06 15:11 | 41.48598 | 69.00404 | 17519 ft | 383 kts | 312° |
| 2026-05-06 15:11 | 41.50404 | 68.97783 | 18056 ft | 385 kts | 312° |
| 2026-05-06 15:11 | 41.52200 | 68.95175 | 18534 ft | 387 kts | 312° |
| 2026-05-06 15:11 | 41.54030 | 68.92515 | 18988 ft | 390 kts | 311° |
| 2026-05-06 15:12 | 41.55870 | 68.89839 | 19426 ft | 392 kts | 311° |
| 2026-05-06 15:12 | 41.57719 | 68.87147 | 19868 ft | 395 kts | 311° |
| 2026-05-06 15:12 | 41.59580 | 68.84434 | 20315 ft | 397 kts | 311° |
| 2026-05-06 15:12 | 41.61453 | 68.81703 | 20764 ft | 400 kts | 311° |
| 2026-05-06 15:13 | 41.63339 | 68.78950 | 21196 ft | 402 kts | 311° |
| 2026-05-06 15:13 | 41.65233 | 68.76182 | 21601 ft | 405 kts | 311° |
| 2026-05-06 15:13 | 41.67142 | 68.73390 | 22028 ft | 408 kts | 311° |
| 2026-05-06 15:13 | 41.69061 | 68.70580 | 22419 ft | 410 kts | 311° |
| 2026-05-06 15:14 | 41.70994 | 68.67748 | 22817 ft | 413 kts | 311° |
| 2026-05-06 15:14 | 41.72939 | 68.64895 | 23215 ft | 416 kts | 311° |
| 2026-05-06 15:14 | 41.74895 | 68.62023 | 23582 ft | 418 kts | 311° |
| 2026-05-06 15:14 | 41.76861 | 68.59134 | 23911 ft | 421 kts | 311° |
| 2026-05-06 15:15 | 41.78833 | 68.56234 | 24274 ft | 421 kts | 311° |
| 2026-05-06 15:15 | 41.80810 | 68.53323 | 24647 ft | 422 kts | 311° |
| 2026-05-06 15:15 | 41.82763 | 68.50445 | 24977 ft | 424 kts | 311° |
| 2026-05-06 15:15 | 41.84751 | 68.47512 | 25297 ft | 426 kts | 311° |
| 2026-05-06 15:16 | 41.86743 | 68.44570 | 25612 ft | 428 kts | 310° |
| 2026-05-06 15:16 | 41.88748 | 68.41606 | 25931 ft | 429 kts | 310° |
| 2026-05-06 15:16 | 41.90756 | 68.38634 | 26245 ft | 431 kts | 310° |
| 2026-05-06 15:16 | 41.92773 | 68.35646 | 26555 ft | 432 kts | 310° |
| 2026-05-06 15:17 | 41.94797 | 68.32644 | 26862 ft | 434 kts | 310° |
| 2026-05-06 15:17 | 41.96826 | 68.29633 | 27146 ft | 436 kts | 310° |
| 2026-05-06 15:17 | 41.98860 | 68.26610 | 27437 ft | 437 kts | 310° |
| 2026-05-06 15:17 | 42.00903 | 68.23573 | 27719 ft | 439 kts | 310° |
| 2026-05-06 15:18 | 42.02953 | 68.20521 | 28013 ft | 440 kts | 310° |
| 2026-05-06 15:18 | 42.05019 | 68.17476 | 28301 ft | 441 kts | 311° |
| 2026-05-06 15:18 | 42.07112 | 68.14449 | 28558 ft | 443 kts | 311° |
| 2026-05-06 15:18 | 42.09223 | 68.11417 | 28802 ft | 444 kts | 311° |
| 2026-05-06 15:19 | 42.11342 | 68.08376 | 29060 ft | 446 kts | 311° |
| 2026-05-06 15:19 | 42.13439 | 68.05358 | 29314 ft | 447 kts | 311° |
| 2026-05-06 15:19 | 42.15560 | 68.02298 | 29642 ft | 447 kts | 311° |
| 2026-05-06 15:19 | 42.17672 | 67.99244 | 30050 ft | 444 kts | 311° |
| 2026-05-06 15:20 | 42.19771 | 67.96202 | 30413 ft | 442 kts | 311° |
| 2026-05-06 15:20 | 42.21861 | 67.93167 | 30702 ft | 441 kts | 311° |
| 2026-05-06 15:20 | 42.23944 | 67.90138 | 30954 ft | 441 kts | 311° |
| 2026-05-06 15:20 | 42.26028 | 67.87104 | 31222 ft | 440 kts | 311° |
| 2026-05-06 15:21 | 42.28108 | 67.84074 | 31534 ft | 439 kts | 311° |
| 2026-05-06 15:21 | 42.30176 | 67.81059 | 31840 ft | 437 kts | 311° |
| 2026-05-06 15:21 | 42.32244 | 67.78040 | 32109 ft | 436 kts | 311° |
| 2026-05-06 15:21 | 42.34298 | 67.75037 | 32358 ft | 436 kts | 310° |
| 2026-05-06 15:22 | 42.36358 | 67.72024 | 32624 ft | 435 kts | 310° |
| 2026-05-06 15:22 | 42.38409 | 67.69021 | 32906 ft | 434 kts | 310° |
| 2026-05-06 15:22 | 42.40454 | 67.66023 | 33174 ft | 433 kts | 310° |
| 2026-05-06 15:22 | 42.42492 | 67.63032 | 33405 ft | 433 kts | 310° |
| 2026-05-06 15:23 | 42.44529 | 67.60039 | 33626 ft | 432 kts | 310° |
| 2026-05-06 15:23 | 42.46565 | 67.57045 | 33872 ft | 432 kts | 310° |
| 2026-05-06 15:23 | 42.48597 | 67.54054 | 34098 ft | 431 kts | 310° |
| 2026-05-06 15:23 | 42.49940 | 67.52076 | 34223 ft | 431 kts | 310° |
| 2026-05-06 15:24 | 42.52623 | 67.48118 | 34441 ft | 431 kts | 310° |
| 2026-05-06 15:24 | 42.54647 | 67.45131 | 34644 ft | 430 kts | 310° |
| 2026-05-06 15:24 | 42.56011 | 67.43115 | 34789 ft | 429 kts | 310° |
| 2026-05-06 15:24 | 42.58679 | 67.39167 | 35032 ft | 428 kts | 310° |
| 2026-05-06 15:25 | 42.60013 | 67.37188 | 35141 ft | 428 kts | 310° |
| 2026-05-06 15:25 | 42.62701 | 67.33195 | 35334 ft | 428 kts | 310° |
| 2026-05-06 15:25 | 42.64706 | 67.30212 | 35518 ft | 427 kts | 310° |
| 2026-05-06 15:25 | 42.66034 | 67.28235 | 35643 ft | 427 kts | 310° |
| 2026-05-06 15:26 | 42.68034 | 67.25254 | 35808 ft | 426 kts | 310° |
| 2026-05-06 15:26 | 42.70033 | 67.22272 | 35926 ft | 427 kts | 309° |
| 2026-05-06 15:26 | 42.72036 | 67.19280 | 35935 ft | 429 kts | 309° |
| 2026-05-06 15:27 | 42.76048 | 67.13281 | 35942 ft | 427 kts | 309° |
| 2026-05-06 15:27 | 42.80040 | 67.07298 | 35943 ft | 426 kts | 309° |
| 2026-05-06 15:28 | 42.84012 | 67.01334 | 35939 ft | 424 kts | 309° |
| 2026-05-06 15:28 | 42.87969 | 66.95378 | 35941 ft | 424 kts | 309° |
| 2026-05-06 15:29 | 42.91922 | 66.89421 | 35912 ft | 424 kts | 309° |
| 2026-05-06 15:29 | 42.95896 | 66.83414 | 35934 ft | 428 kts | 309° |
| 2026-05-06 15:30 | 42.99899 | 66.77351 | 35944 ft | 431 kts | 309° |
| 2026-05-06 15:30 | 43.03925 | 66.71268 | 35933 ft | 431 kts | 309° |
| 2026-05-06 15:31 | 43.05335 | 66.69139 | 35923 ft | 429 kts | 309° |
| 2026-05-06 15:32 | 43.10514 | 66.61298 | 35940 ft | 427 kts | 308° |
| 2026-05-06 15:32 | 43.14506 | 66.55235 | 35944 ft | 431 kts | 308° |
| 2026-05-06 15:33 | 43.18540 | 66.49095 | 35943 ft | 436 kts | 308° |
| 2026-05-06 15:33 | 43.22610 | 66.42884 | 35939 ft | 439 kts | 308° |
| 2026-05-06 15:34 | 43.26685 | 66.36636 | 35925 ft | 438 kts | 308° |
| 2026-05-06 15:34 | 43.30727 | 66.30421 | 35928 ft | 436 kts | 308° |
| 2026-05-06 15:35 | 43.34755 | 66.24214 | 35927 ft | 434 kts | 308° |
| 2026-05-06 15:35 | 43.38743 | 66.18056 | 35927 ft | 434 kts | 308° |
| 2026-05-06 15:36 | 43.42751 | 66.11852 | 35928 ft | 434 kts | 308° |
| 2026-05-06 15:36 | 43.46756 | 66.05641 | 35928 ft | 434 kts | 308° |
| 2026-05-06 15:37 | 43.50768 | 65.99405 | 35929 ft | 435 kts | 307° |
| 2026-05-06 15:37 | 43.54787 | 65.93144 | 35930 ft | 437 kts | 307° |
| 2026-05-06 15:38 | 43.58820 | 65.86850 | 35927 ft | 438 kts | 307° |
| 2026-05-06 15:38 | 43.62856 | 65.80535 | 35926 ft | 440 kts | 307° |
| 2026-05-06 15:39 | 43.66905 | 65.74188 | 35926 ft | 441 kts | 307° |
| 2026-05-06 15:39 | 43.70960 | 65.67816 | 35925 ft | 442 kts | 307° |
| 2026-05-06 15:40 | 43.75022 | 65.61420 | 35922 ft | 443 kts | 307° |
| 2026-05-06 15:40 | 43.79081 | 65.55014 | 35920 ft | 443 kts | 307° |
| 2026-05-06 15:41 | 43.83114 | 65.48634 | 35912 ft | 443 kts | 307° |
| 2026-05-06 15:41 | 43.87169 | 65.42206 | 35912 ft | 443 kts | 307° |
| 2026-05-06 15:42 | 43.91218 | 65.35772 | 35917 ft | 442 kts | 307° |
| 2026-05-06 15:42 | 43.95256 | 65.29341 | 35911 ft | 442 kts | 307° |
| 2026-05-06 15:43 | 43.99281 | 65.22917 | 35911 ft | 441 kts | 307° |
| 2026-05-06 15:43 | 44.03303 | 65.16483 | 35908 ft | 440 kts | 307° |
| 2026-05-06 15:44 | 44.07313 | 65.10053 | 35915 ft | 440 kts | 307° |
| 2026-05-06 15:44 | 44.11315 | 65.03621 | 35912 ft | 439 kts | 306° |
| 2026-05-06 15:45 | 44.15313 | 64.97181 | 35910 ft | 439 kts | 306° |
| 2026-05-06 15:45 | 44.19300 | 64.90744 | 35909 ft | 439 kts | 306° |
| 2026-05-06 15:46 | 44.23283 | 64.84301 | 35912 ft | 439 kts | 306° |
| 2026-05-06 15:46 | 44.27270 | 64.77849 | 35908 ft | 439 kts | 306° |
| 2026-05-06 15:47 | 44.31231 | 64.71446 | 35908 ft | 439 kts | 306° |
| 2026-05-06 15:47 | 44.35244 | 64.64944 | 35913 ft | 439 kts | 306° |
| 2026-05-06 15:48 | 44.39189 | 64.58508 | 35912 ft | 439 kts | 306° |
| 2026-05-06 15:48 | 44.43135 | 64.51984 | 35907 ft | 439 kts | 306° |
| 2026-05-06 15:49 | 44.47096 | 64.45468 | 35910 ft | 440 kts | 306° |
| 2026-05-06 15:49 | 44.51074 | 64.38941 | 35909 ft | 441 kts | 306° |
| 2026-05-06 15:50 | 44.55059 | 64.32383 | 35918 ft | 443 kts | 306° |
| 2026-05-06 15:50 | 44.59050 | 64.25795 | 35910 ft | 444 kts | 306° |
| 2026-05-06 15:51 | 44.63039 | 64.19193 | 35914 ft | 442 kts | 306° |
| 2026-05-06 15:51 | 44.67008 | 64.12610 | 35912 ft | 440 kts | 306° |
| 2026-05-06 15:52 | 44.70950 | 64.06055 | 35905 ft | 439 kts | 306° |
| 2026-05-06 15:52 | 44.74902 | 63.99464 | 35913 ft | 443 kts | 306° |
| 2026-05-06 15:53 | 44.78878 | 63.92819 | 35903 ft | 443 kts | 306° |
| 2026-05-06 15:53 | 44.82840 | 63.86188 | 35902 ft | 441 kts | 305° |
| 2026-05-06 15:54 | 44.86755 | 63.79617 | 35909 ft | 441 kts | 305° |
| 2026-05-06 15:54 | 44.90702 | 63.72973 | 35912 ft | 442 kts | 305° |
| 2026-05-06 15:55 | 44.94648 | 63.66320 | 35900 ft | 441 kts | 305° |
| 2026-05-06 15:55 | 44.98579 | 63.59673 | 35903 ft | 440 kts | 305° |
| 2026-05-06 15:56 | 45.02496 | 63.53038 | 35902 ft | 439 kts | 305° |
| 2026-05-06 15:56 | 45.06405 | 63.46399 | 35905 ft | 440 kts | 304° |
| 2026-05-06 15:57 | 45.10370 | 63.39785 | 35905 ft | 441 kts | 306° |
| 2026-05-06 15:57 | 45.14431 | 63.33267 | 35902 ft | 441 kts | 306° |
| 2026-05-06 15:58 | 45.18452 | 63.26809 | 35905 ft | 440 kts | 306° |
| 2026-05-06 15:58 | 45.22511 | 63.20237 | 35901 ft | 440 kts | 306° |
| 2026-05-06 15:59 | 45.26513 | 63.13722 | 35906 ft | 441 kts | 306° |
| 2026-05-06 15:59 | 45.30543 | 63.07141 | 35905 ft | 442 kts | 306° |
| 2026-05-06 16:00 | 45.34578 | 63.00538 | 35899 ft | 442 kts | 306° |
| 2026-05-06 16:00 | 45.38606 | 62.93934 | 35901 ft | 442 kts | 306° |
| 2026-05-06 16:01 | 45.42627 | 62.87323 | 35899 ft | 441 kts | 305° |
| 2026-05-06 16:01 | 45.46644 | 62.80705 | 35900 ft | 442 kts | 305° |
| 2026-05-06 16:02 | 45.50666 | 62.74059 | 35905 ft | 444 kts | 305° |
| 2026-05-06 16:02 | 45.54702 | 62.67376 | 35901 ft | 445 kts | 305° |
| 2026-05-06 16:03 | 45.58737 | 62.60680 | 35902 ft | 445 kts | 305° |
| 2026-05-06 16:03 | 45.61146 | 62.56675 | 35903 ft | 444 kts | 305° |
| 2026-05-06 16:04 | 45.64347 | 62.51343 | 35903 ft | 444 kts | 305° |
| 2026-05-06 16:04 | 45.66757 | 62.47321 | 35901 ft | 444 kts | 306° |
| 2026-05-06 16:05 | 45.70346 | 62.41322 | 35909 ft | 446 kts | 305° |
| 2026-05-06 16:05 | 45.74391 | 62.34543 | 35918 ft | 449 kts | 305° |
| 2026-05-06 16:06 | 45.78445 | 62.27735 | 35904 ft | 449 kts | 305° |
| 2026-05-06 16:06 | 45.82490 | 62.20929 | 35905 ft | 448 kts | 305° |
| 2026-05-06 16:07 | 45.86524 | 62.14120 | 35904 ft | 449 kts | 305° |
| 2026-05-06 16:07 | 45.90569 | 62.07274 | 35915 ft | 450 kts | 305° |
| 2026-05-06 16:08 | 45.94617 | 62.00409 | 35903 ft | 450 kts | 305° |
| 2026-05-06 16:08 | 45.98656 | 61.93544 | 35909 ft | 449 kts | 305° |
| 2026-05-06 16:09 | 46.02652 | 61.86731 | 35905 ft | 449 kts | 305° |
| 2026-05-06 16:09 | 46.06671 | 61.79864 | 35909 ft | 448 kts | 305° |
| 2026-05-06 16:10 | 46.10679 | 61.72996 | 35900 ft | 448 kts | 305° |
| 2026-05-06 16:10 | 46.14692 | 61.66108 | 35916 ft | 448 kts | 305° |
| 2026-05-06 16:11 | 46.18930 | 61.59421 | 35917 ft | 454 kts | 309° |
| 2026-05-06 16:11 | 46.23299 | 61.52912 | 35917 ft | 454 kts | 309° |
| 2026-05-06 16:12 | 46.27665 | 61.46335 | 35907 ft | 453 kts | 308° |
| 2026-05-06 16:12 | 46.32016 | 61.39755 | 35912 ft | 453 kts | 308° |
| 2026-05-06 16:13 | 46.36377 | 61.33150 | 35915 ft | 455 kts | 308° |
| 2026-05-06 16:13 | 46.40753 | 61.26512 | 35918 ft | 456 kts | 308° |
| 2026-05-06 16:14 | 46.44389 | 61.20986 | 35908 ft | 455 kts | 308° |
| 2026-05-06 16:14 | 46.49490 | 61.13217 | 35914 ft | 453 kts | 308° |
| 2026-05-06 16:15 | 46.53093 | 61.07714 | 35911 ft | 452 kts | 308° |
| 2026-05-06 16:15 | 46.57425 | 61.01082 | 35920 ft | 452 kts | 308° |
| 2026-05-06 16:16 | 46.61749 | 60.94444 | 35925 ft | 454 kts | 308° |
| 2026-05-06 16:16 | 46.66104 | 60.87737 | 35929 ft | 458 kts | 308° |
| 2026-05-06 16:17 | 46.70477 | 60.80994 | 35916 ft | 457 kts | 308° |
| 2026-05-06 16:17 | 46.74830 | 60.74267 | 35917 ft | 455 kts | 308° |
| 2026-05-06 16:18 | 46.79170 | 60.67540 | 35925 ft | 455 kts | 308° |
| 2026-05-06 16:18 | 46.83482 | 60.60837 | 35928 ft | 456 kts | 308° |
| 2026-05-06 16:19 | 46.87824 | 60.54070 | 35919 ft | 457 kts | 308° |
| 2026-05-06 16:19 | 46.92173 | 60.47277 | 35935 ft | 458 kts | 308° |
| 2026-05-06 16:20 | 46.96548 | 60.40422 | 35926 ft | 463 kts | 308° |
| 2026-05-06 16:20 | 47.00954 | 60.33502 | 35932 ft | 466 kts | 308° |
| 2026-05-06 16:21 | 47.05354 | 60.26580 | 35915 ft | 462 kts | 308° |
| 2026-05-06 16:21 | 47.09723 | 60.19690 | 35920 ft | 460 kts | 308° |
| 2026-05-06 16:22 | 47.14067 | 60.12817 | 35919 ft | 458 kts | 308° |
| 2026-05-06 16:22 | 47.18370 | 60.05990 | 35924 ft | 457 kts | 307° |
| 2026-05-06 16:23 | 47.22690 | 59.99116 | 35925 ft | 458 kts | 307° |
| 2026-05-06 16:23 | 47.27014 | 59.92219 | 35918 ft | 459 kts | 307° |
| 2026-05-06 16:24 | 47.31344 | 59.85296 | 35921 ft | 460 kts | 307° |
| 2026-05-06 16:24 | 47.35683 | 59.78339 | 35915 ft | 462 kts | 307° |
| 2026-05-06 16:25 | 47.40037 | 59.71342 | 35911 ft | 463 kts | 307° |
| 2026-05-06 16:25 | 47.44390 | 59.64328 | 35910 ft | 464 kts | 307° |
| 2026-05-06 16:26 | 47.48749 | 59.57285 | 35902 ft | 464 kts | 307° |
| 2026-05-06 16:26 | 47.53102 | 59.50236 | 35899 ft | 464 kts | 307° |
| 2026-05-06 16:27 | 47.57449 | 59.43175 | 35892 ft | 463 kts | 307° |
| 2026-05-06 16:27 | 47.61756 | 59.36161 | 35895 ft | 463 kts | 307° |
| 2026-05-06 16:28 | 47.66080 | 59.29101 | 35888 ft | 462 kts | 307° |
| 2026-05-06 16:28 | 47.70401 | 59.22027 | 35892 ft | 462 kts | 307° |
| 2026-05-06 16:29 | 47.74707 | 59.14958 | 35891 ft | 461 kts | 307° |
| 2026-05-06 16:29 | 47.79004 | 59.07885 | 35889 ft | 460 kts | 307° |
| 2026-05-06 16:30 | 47.82567 | 59.02006 | 35890 ft | 460 kts | 306° |
| 2026-05-06 16:30 | 47.87568 | 58.93732 | 35891 ft | 459 kts | 306° |
| 2026-05-06 16:31 | 47.91832 | 58.86657 | 35892 ft | 459 kts | 306° |
| 2026-05-06 16:31 | 47.96088 | 58.79577 | 35887 ft | 458 kts | 306° |
| 2026-05-06 16:32 | 48.00338 | 58.72489 | 35884 ft | 458 kts | 306° |
| 2026-05-06 16:32 | 48.04578 | 58.65396 | 35891 ft | 458 kts | 306° |
| 2026-05-06 16:33 | 48.08820 | 58.58282 | 35890 ft | 458 kts | 306° |
| 2026-05-06 16:34 | 48.15172 | 58.47594 | 35889 ft | 458 kts | 306° |
| 2026-05-06 16:34 | 48.19402 | 58.40453 | 35896 ft | 458 kts | 306° |
| 2026-05-06 16:35 | 48.23604 | 58.33339 | 35887 ft | 459 kts | 306° |
| 2026-05-06 16:35 | 48.27834 | 58.26158 | 35892 ft | 459 kts | 306° |
| 2026-05-06 16:36 | 48.32064 | 58.18959 | 35889 ft | 459 kts | 306° |
| 2026-05-06 16:36 | 48.36286 | 58.11753 | 35883 ft | 459 kts | 306° |
| 2026-05-06 16:37 | 48.40502 | 58.04539 | 35884 ft | 459 kts | 306° |
| 2026-05-06 16:37 | 48.44715 | 57.97308 | 35884 ft | 459 kts | 306° |
| 2026-05-06 16:38 | 48.48924 | 57.90065 | 35886 ft | 459 kts | 306° |
| 2026-05-06 16:38 | 48.53125 | 57.82818 | 35874 ft | 459 kts | 305° |
| 2026-05-06 16:39 | 48.57317 | 57.75565 | 35881 ft | 459 kts | 305° |
| 2026-05-06 16:39 | 48.61476 | 57.68349 | 35876 ft | 458 kts | 305° |
| 2026-05-06 16:40 | 48.65644 | 57.61100 | 35877 ft | 456 kts | 305° |
| 2026-05-06 16:40 | 48.69799 | 57.53851 | 35878 ft | 455 kts | 305° |
| 2026-05-06 16:41 | 48.73939 | 57.46609 | 35878 ft | 454 kts | 305° |
| 2026-05-06 16:41 | 48.78058 | 57.39383 | 35874 ft | 453 kts | 305° |
| 2026-05-06 16:42 | 48.82168 | 57.32154 | 35877 ft | 452 kts | 305° |
| 2026-05-06 16:42 | 48.86268 | 57.24923 | 35876 ft | 452 kts | 305° |
| 2026-05-06 16:43 | 48.90366 | 57.17674 | 35914 ft | 453 kts | 306° |
| 2026-05-06 16:43 | 48.94496 | 57.10343 | 35888 ft | 459 kts | 306° |
| 2026-05-06 16:44 | 48.98646 | 57.02961 | 35883 ft | 464 kts | 306° |
| 2026-05-06 16:44 | 49.02846 | 56.95472 | 35875 ft | 465 kts | 306° |
| 2026-05-06 16:45 | 49.07028 | 56.88001 | 35866 ft | 462 kts | 306° |
| 2026-05-06 16:45 | 49.11184 | 56.80547 | 35872 ft | 462 kts | 306° |
| 2026-05-06 16:46 | 49.15355 | 56.73042 | 35872 ft | 464 kts | 306° |
| 2026-05-06 16:46 | 49.19528 | 56.65514 | 35868 ft | 464 kts | 306° |
| 2026-05-06 16:47 | 49.23693 | 56.57981 | 35866 ft | 463 kts | 306° |
| 2026-05-06 16:47 | 49.27845 | 56.50450 | 35865 ft | 463 kts | 306° |
| 2026-05-06 16:48 | 49.31989 | 56.42910 | 35861 ft | 463 kts | 305° |
| 2026-05-06 16:48 | 49.36131 | 56.35352 | 35865 ft | 463 kts | 305° |
| 2026-05-06 16:49 | 49.40280 | 56.27760 | 35865 ft | 464 kts | 305° |
| 2026-05-06 16:49 | 49.44420 | 56.20163 | 35861 ft | 464 kts | 305° |
| 2026-05-06 16:50 | 49.48555 | 56.12553 | 35857 ft | 463 kts | 305° |
| 2026-05-06 16:50 | 49.52674 | 56.04952 | 35858 ft | 461 kts | 305° |
| 2026-05-06 16:51 | 49.56768 | 55.97375 | 35855 ft | 459 kts | 305° |
| 2026-05-06 16:51 | 49.60825 | 55.89840 | 35864 ft | 461 kts | 305° |
| 2026-05-06 16:52 | 49.64932 | 55.82190 | 35860 ft | 463 kts | 305° |
| 2026-05-06 16:52 | 49.69033 | 55.74534 | 35851 ft | 462 kts | 305° |
| 2026-05-06 16:53 | 49.73112 | 55.66898 | 35848 ft | 460 kts | 305° |
| 2026-05-06 16:53 | 49.77169 | 55.59280 | 35848 ft | 458 kts | 305° |
| 2026-05-06 16:54 | 49.81216 | 55.51655 | 35845 ft | 457 kts | 305° |
| 2026-05-06 16:54 | 49.85249 | 55.44036 | 35850 ft | 457 kts | 306° |
| 2026-05-06 16:55 | 49.89280 | 55.36398 | 35840 ft | 458 kts | 306° |
| 2026-05-06 16:55 | 49.93282 | 55.28792 | 35844 ft | 459 kts | 306° |
| 2026-05-06 16:56 | 49.97318 | 55.21101 | 35843 ft | 460 kts | 306° |
| 2026-05-06 16:56 | 50.01362 | 55.13370 | 35842 ft | 462 kts | 306° |
| 2026-05-06 16:57 | 50.05413 | 55.05603 | 35837 ft | 463 kts | 306° |
| 2026-05-06 16:57 | 50.09474 | 54.97797 | 35845 ft | 464 kts | 306° |
| 2026-05-06 16:58 | 50.13541 | 54.89953 | 35833 ft | 465 kts | 306° |
| 2026-05-06 16:58 | 50.17612 | 54.82078 | 35834 ft | 466 kts | 306° |
| 2026-05-06 16:59 | 50.21684 | 54.74178 | 35829 ft | 467 kts | 306° |
| 2026-05-06 16:59 | 50.25747 | 54.66271 | 35830 ft | 467 kts | 306° |
| 2026-05-06 17:00 | 50.29796 | 54.58344 | 35832 ft | 466 kts | 304° |
| 2026-05-06 17:00 | 50.32967 | 54.49584 | 35842 ft | 461 kts | 292° |
| 2026-05-06 17:01 | 50.35572 | 54.40483 | 35831 ft | 461 kts | 291° |
| 2026-05-06 17:01 | 50.38193 | 54.31294 | 35830 ft | 461 kts | 292° |
| 2026-05-06 17:02 | 50.40841 | 54.22133 | 35831 ft | 462 kts | 292° |
| 2026-05-06 17:02 | 50.43500 | 54.12976 | 35833 ft | 462 kts | 292° |
| 2026-05-06 17:03 | 50.46159 | 54.03800 | 35833 ft | 462 kts | 292° |
| 2026-05-06 17:03 | 50.48360 | 53.96170 | 35832 ft | 462 kts | 292° |
| 2026-05-06 17:04 | 50.51000 | 53.86987 | 35829 ft | 460 kts | 292° |
| 2026-05-06 17:04 | 50.53621 | 53.77829 | 35841 ft | 461 kts | 292° |
| 2026-05-06 17:05 | 50.56251 | 53.68604 | 35836 ft | 463 kts | 292° |
| 2026-05-06 17:05 | 50.58885 | 53.59329 | 35835 ft | 465 kts | 292° |
| 2026-05-06 17:06 | 50.61517 | 53.50028 | 35834 ft | 465 kts | 292° |
| 2026-05-06 17:06 | 50.64129 | 53.40759 | 35830 ft | 465 kts | 292° |
| 2026-05-06 17:07 | 50.66748 | 53.31428 | 35830 ft | 465 kts | 292° |
| 2026-05-06 17:07 | 50.69358 | 53.22095 | 35829 ft | 465 kts | 292° |
| 2026-05-06 17:08 | 50.71960 | 53.12750 | 35829 ft | 465 kts | 292° |
| 2026-05-06 17:08 | 50.74554 | 53.03400 | 35831 ft | 465 kts | 292° |
| 2026-05-06 17:09 | 50.77143 | 52.94028 | 35829 ft | 466 kts | 292° |
| 2026-05-06 17:09 | 50.79724 | 52.84646 | 35829 ft | 466 kts | 292° |
| 2026-05-06 17:10 | 50.82301 | 52.75244 | 35831 ft | 466 kts | 292° |